Time;durP1;ratioP1;P1;durP2;ratioP2;P2;SDS_P1;SDS_P2;PMS_P1;PMS_P2;Temp;Humidity;BMP_temperature;BMP_pressure;BME280_temperature;BME280_humidity;BME280_pressure;Samples;Min_cycle;Max_cycle;Signal;HPM_P1;HPM_P2
2024/01/10 00:01:31;;;;;;;;;;;;;;;-5.49;100.00;97113.84;5083927;28;19934;-73
2024/01/10 00:03:57;;;;;;;;;;;;;;;-5.49;100.00;97112.09;5084778;28;20255;-73
2024/01/10 00:06:23;;;;;;;;;;;;;;;-5.48;100.00;97115.47;5083855;28;20003;-73
2024/01/10 00:08:49;;;;;;;;;;;;;;;-5.48;100.00;97110.34;5083732;28;19984;-72
2024/01/10 00:11:15;;;;;;;;;;;;;;;-5.47;100.00;97110.25;5083669;28;19972;-73
2024/01/10 00:13:41;;;;;;;;;;;;;;;-5.46;100.00;97108.50;5084633;28;20015;-75
2024/01/10 00:16:07;;;;;;;;;;;;;;;-5.46;100.00;97114.44;5073431;23;19994;-74
2024/01/10 00:18:33;;;;;;;;;;;;;;;-5.44;100.00;97110.03;5063791;28;19939;-74
2024/01/10 00:20:59;;;;;;;;;;;;;;;-5.42;100.00;97120.97;5063378;28;19964;-73
2024/01/10 00:23:25;;;;;;;;;;;;;;;-5.40;100.00;97121.69;5045797;28;19943;-74
2024/01/10 00:25:51;;;;;;;;;;;;;;;-5.41;100.00;97117.53;5045865;28;19943;-74
2024/01/10 00:28:17;;;;;;;;;;;;;;;-5.41;100.00;97120.06;5063268;28;19953;-74
2024/01/10 00:30:48;;;;;;;;;;;;;;;-5.42;100.00;97112.50;5063483;28;19983;-77
2024/01/10 00:33:14;;;;;;;;;;;;;;;-5.41;100.00;97109.84;5045523;28;19946;-75
2024/01/10 00:35:39;;;;;;;;;;;;;;;-5.40;100.00;97110.66;5045470;28;19940;-79
2024/01/10 00:38:05;;;;;;;;;;;;;;;-5.40;100.00;97108.91;5063912;28;19935;-80
2024/01/10 00:40:31;;;;;;;;;;;;;;;-5.39;100.00;97102.09;5064147;28;19934;-84
2024/01/10 00:42:57;;;;;;;;;;;;;;;-5.40;100.00;97092.78;5063349;28;19926;-85
2024/01/10 00:45:24;;;;;;;;;;;;;;;-5.40;100.00;97085.09;5063328;28;20131;-84
2024/01/10 00:47:50;;;;;;;;;;;;;;;-5.39;100.00;97095.22;5046338;28;20208;-85
2024/01/10 00:50:16;;;;;;;;;;;;;;;-5.37;100.00;97092.59;5063673;28;19942;-74
2024/01/10 00:52:43;;;;;;;;;;;;;;;-5.38;100.00;97093.50;5029008;28;19949;-74
2024/01/10 00:55:09;;;;;;;;;;;;;;;-5.37;100.00;97100.25;5046393;28;19943;-76
2024/01/10 00:57:35;;;;;;;;;;;;;;;-5.37;100.00;97101.06;5047029;28;19967;-74
2024/01/10 01:00:01;;;;;;;;;;;;;;;-5.35;100.00;97096.66;5068002;28;19939;-74
2024/01/10 01:02:27;;;;;;;;;;;;;;;-5.35;100.00;97093.28;5049453;28;19988;-75
2024/01/10 01:04:53;;;;;;;;;;;;;;;-5.34;100.00;97090.63;5067123;28;19934;-74
2024/01/10 01:07:18;;;;;;;;;;;;;;;-5.33;100.00;97096.56;5066954;28;19946;-74
2024/01/10 01:09:44;;;;;;;;;;;;;;;-5.34;100.00;97088.06;5067398;28;19953;-77
2024/01/10 01:12:10;;;;;;;;;;;;;;;-5.34;100.00;97092.38;5049910;28;20274;-75
2024/01/10 01:14:36;;;;;;;;;;;;;;;-5.32;100.00;97093.88;5049852;28;19946;-75
2024/01/10 01:17:02;;;;;;;;;;;;;;;-5.29;100.00;97092.88;5049051;28;20137;-75
2024/01/10 01:19:28;;;;;;;;;;;;;;;-5.26;100.00;97087.56;5049387;28;19987;-76
2024/01/10 01:21:54;;;;;;;;;;;;;;;-5.24;100.00;97088.28;5049008;28;19948;-76
2024/01/10 01:24:20;;;;;;;;;;;;;;;-5.19;100.00;97080.28;5049593;28;19945;-76
2024/01/10 01:26:46;;;;;;;;;;;;;;;-5.16;100.00;97095.44;5049779;28;20116;-74
2024/01/10 01:29:11;;;;;;;;;;;;;;;-5.12;100.00;97091.75;5049380;28;19955;-72
2024/01/10 01:31:38;;;;;;;;;;;;;;;-5.07;100.00;97091.44;5066632;28;19938;-72
2024/01/10 01:34:04;;;;;;;;;;;;;;;-5.05;100.00;97087.03;5033029;28;20203;-71
2024/01/10 01:36:29;;;;;;;;;;;;;;;-5.02;100.00;97082.50;5049490;28;19938;-72
2024/01/10 01:38:55;;;;;;;;;;;;;;;-4.99;100.00;97094.28;5067036;28;19936;-71
2024/01/10 01:41:21;;;;;;;;;;;;;;;-4.98;100.00;97089.03;5048817;28;19946;-72
2024/01/10 01:43:47;;;;;;;;;;;;;;;-4.96;100.00;97089.75;5032885;28;19939;-74
2024/01/10 01:46:13;;;;;;;;;;;;;;;-4.94;100.00;97089.66;5049482;28;19930;-78
2024/01/10 01:48:40;;;;;;;;;;;;;;;-5.06;100.00;97093.88;5048598;28;19961;-74
2024/01/10 01:51:06;;;;;;;;;;;;;;;-5.13;100.00;97116.47;5031857;28;20134;-74
2024/01/10 01:53:35;;;;;;;;;;;;;;;-5.19;100.00;97116.88;5065539;28;20240;-75
2024/01/10 01:56:03;;;;;;;;;;;;;;;-5.18;100.00;97128.78;5066107;28;19944;-73
2024/01/10 01:58:29;;;;;;;;;;;;;;;-5.16;100.00;97116.69;5066575;28;19941;-74
2024/01/10 02:00:55;;;;;;;;;;;;;;;-5.12;100.00;97117.31;5066096;28;19977;-75
2024/01/10 02:03:21;;;;;;;;;;;;;;;-5.10;100.00;97112.91;5066542;28;19941;-82
2024/01/10 02:05:47;;;;;;;;;;;;;;;-5.07;100.00;97117.00;5048847;28;19948;-75
2024/01/10 02:08:14;;;;;;;;;;;;;;;-5.05;100.00;97113.41;5047995;28;20157;-74
2024/01/10 02:10:39;;;;;;;;;;;;;;;-5.00;100.00;97106.22;5030881;28;20140;-75
2024/01/10 02:13:06;;;;;;;;;;;;;;;-4.97;100.00;97107.78;5066584;28;19933;-74
2024/01/10 02:15:32;;;;;;;;;;;;;;;-4.94;100.00;97115.25;5047735;28;19971;-74
2024/01/10 02:17:57;;;;;;;;;;;;;;;-4.92;100.00;97110.84;5066007;28;19949;-75
2024/01/10 02:20:23;;;;;;;;;;;;;;;-4.90;100.00;97112.34;5066218;28;19973;-78
2024/01/10 02:22:50;;;;;;;;;;;;;;;-4.87;100.00;97107.97;5048154;28;19946;-70
2024/01/10 02:25:16;;;;;;;;;;;;;;;-4.86;100.00;97095.06;5048510;28;19947;-77
2024/01/10 02:27:42;;;;;;;;;;;;;;;-4.87;100.00;97103.69;5048337;28;19935;-78
2024/01/10 02:30:09;;;;;;;;;;;;;;;-4.87;100.00;97108.78;5066289;28;19933;-74
2024/01/10 02:32:35;;;;;;;;;;;;;;;-4.87;100.00;97105.41;5065479;28;19946;-75
2024/01/10 02:35:00;;;;;;;;;;;;;;;-4.86;100.00;97101.94;5047927;28;19934;-76
2024/01/10 02:37:26;;;;;;;;;;;;;;;-4.88;100.00;97102.03;5047814;28;19936;-76
2024/01/10 02:39:52;;;;;;;;;;;;;;;-4.87;100.00;97101.13;5030587;28;19945;-73
2024/01/10 02:42:18;;;;;;;;;;;;;;;-4.84;100.00;97084.72;5030632;28;19954;-73
2024/01/10 02:44:44;;;;;;;;;;;;;;;-4.86;100.00;97089.94;5047652;28;19934;-73
2024/01/10 02:47:11;;;;;;;;;;;;;;;-4.85;100.00;97098.44;5047055;28;20089;-73
2024/01/10 02:49:37;;;;;;;;;;;;;;;-4.84;100.00;97090.66;5031099;28;19959;-74
2024/01/10 02:52:03;;;;;;;;;;;;;;;-4.83;100.00;97094.03;5046785;28;20316;-73
2024/01/10 02:54:29;;;;;;;;;;;;;;;-4.84;100.00;97089.84;5046932;28;19970;-73
2024/01/10 02:56:54;;;;;;;;;;;;;;;-4.86;100.00;97087.38;5047679;28;19944;-73
2024/01/10 02:59:20;;;;;;;;;;;;;;;-4.89;100.00;97092.72;5046999;28;19939;-72
2024/01/10 03:01:46;;;;;;;;;;;;;;;-4.98;100.00;97094.16;5047616;28;19941;-73
2024/01/10 03:04:12;;;;;;;;;;;;;;;-5.03;100.00;97085.19;5047564;28;19941;-73
2024/01/10 03:06:38;;;;;;;;;;;;;;;-5.03;100.00;97096.22;5030991;28;19939;-73
2024/01/10 03:09:04;;;;;;;;;;;;;;;-5.03;100.00;97085.19;5030055;28;20043;-73
2024/01/10 03:11:30;;;;;;;;;;;;;;;-5.01;100.00;97083.34;5030065;28;19950;-73
2024/01/10 03:14:04;;;;;;;;;;;;;;;-4.99;100.00;97086.59;5064356;28;19936;-73
2024/01/10 03:16:30;;;;;;;;;;;;;;;-4.96;100.00;97083.81;5064218;28;19962;-81
2024/01/10 03:18:56;;;;;;;;;;;;;;;-4.92;100.00;97078.38;5064421;28;19946;-76
2024/01/10 03:21:26;;;;;;;;;;;;;;;-4.92;100.00;97070.72;5063933;28;19936;-74
2024/01/10 03:23:52;;;;;;;;;;;;;;;-4.88;100.00;97070.53;5064588;28;20222;-75
2024/01/10 03:26:18;;;;;;;;;;;;;;;-4.88;100.00;97066.22;5064212;28;20142;-74
2024/01/10 03:28:44;;;;;;;;;;;;;;;-4.87;100.00;97061.91;5047105;28;19956;-75
2024/01/10 03:31:13;;;;;;;;;;;;;;;-4.90;100.00;97052.72;5064212;28;19941;-74
2024/01/10 03:33:39;;;;;;;;;;;;;;;-4.91;100.00;97063.88;5064137;28;19941;-75
2024/01/10 03:36:05;;;;;;;;;;;;;;;-4.92;100.00;97057.94;5064658;28;19959;-76
2024/01/10 03:38:31;;;;;;;;;;;;;;;-4.90;100.00;97058.63;5029847;28;19940;-77
2024/01/10 03:40:57;;;;;;;;;;;;;;;-4.89;100.00;97056.91;5064444;28;19947;-76
2024/01/10 03:43:23;;;;;;;;;;;;;;;-4.87;100.00;97059.34;5064045;28;19934;-76
2024/01/10 03:45:49;;;;;;;;;;;;;;;-4.85;100.00;97067.72;5064475;28;20228;-76
2024/01/10 03:48:14;;;;;;;;;;;;;;;-4.84;100.00;97064.28;5046000;28;19959;-75
2024/01/10 03:50:40;;;;;;;;;;;;;;;-4.82;100.00;97067.53;5063463;28;19943;-76
2024/01/10 03:53:06;;;;;;;;;;;;;;;-4.82;100.00;97068.34;5030361;28;19943;-72
2024/01/10 03:55:32;;;;;;;;;;;;;;;-4.80;100.00;97081.84;5046590;28;19933;-79
2024/01/10 03:57:59;;;;;;;;;;;;;;;-4.78;100.00;97080.00;5046008;28;19932;-74
2024/01/10 04:00:25;;;;;;;;;;;;;;;-4.77;100.00;97081.63;5046267;28;19935;-74
2024/01/10 04:02:52;;;;;;;;;;;;;;;-4.77;100.00;97076.50;5064170;28;20046;-73
2024/01/10 04:05:19;;;;;;;;;;;;;;;-4.74;100.00;97071.19;5063811;28;19938;-75
2024/01/10 04:07:45;;;;;;;;;;;;;;;-4.72;100.00;97068.53;5063765;28;19942;-74
2024/01/10 04:10:13;;;;;;;;;;;;;;;-4.71;100.00;97070.16;5064530;28;20029;-73
2024/01/10 04:12:40;;;;;;;;;;;;;;;-4.71;100.00;97078.63;5063793;28;19949;-72
2024/01/10 04:15:06;;;;;;;;;;;;;;;-4.70;100.00;97084.59;5046489;28;19941;-78
2024/01/10 04:17:32;;;;;;;;;;;;;;;-4.67;100.00;97074.13;5046746;28;19940;-80
2024/01/10 04:19:58;;;;;;;;;;;;;;;-4.64;100.00;97075.66;5064556;28;19954;-79
2024/01/10 04:22:24;;;;;;;;;;;;;;;-4.66;100.00;97070.66;5046576;28;20126;-80
2024/01/10 04:24:50;;;;;;;;;;;;;;;-4.64;100.00;97065.41;5063821;28;19934;-78
2024/01/10 04:27:16;;;;;;;;;;;;;;;-4.63;100.00;97061.94;5064193;28;20012;-79
2024/01/10 04:29:42;;;;;;;;;;;;;;;-4.63;100.00;97067.88;5064067;28;20246;-76
2024/01/10 04:32:08;;;;;;;;;;;;;;;-4.62;100.00;97066.97;5030107;28;19989;-81
2024/01/10 04:34:34;;;;;;;;;;;;;;;-4.60;100.00;97066.84;5067747;28;19943;-70
2024/01/10 04:37:00;;;;;;;;;;;;;;;-4.61;100.00;97068.59;5034096;28;19948;-70
2024/01/10 04:39:26;;;;;;;;;;;;;;;-4.59;100.00;97074.41;5049841;28;19940;-70
2024/01/10 04:41:52;;;;;;;;;;;;;;;-4.54;100.00;97086.88;5050595;28;20234;-71
2024/01/10 04:44:18;;;;;;;;;;;;;;;-4.56;100.00;97086.97;5033281;28;19947;-70
2024/01/10 04:46:43;;;;;;;;;;;;;;;-4.56;100.00;97086.97;5067531;28;19949;-69
2024/01/10 04:49:09;;;;;;;;;;;;;;;-4.56;100.00;97089.53;5050192;28;19956;-80
2024/01/10 04:51:35;;;;;;;;;;;;;;;-4.55;100.00;97083.50;5025973;28;19940;-79
2024/01/10 04:54:01;;;;;;;;;;;;;;;-4.55;100.00;97086.06;5026578;28;20092;-80
2024/01/10 04:56:27;;;;;;;;;;;;;;;-4.55;100.00;97083.50;5026214;28;20233;-80
2024/01/10 04:58:53;;;;;;;;;;;;;;;-4.54;100.00;97081.75;5026585;28;19940;-80
2024/01/10 05:01:19;;;;;;;;;;;;;;;-4.54;100.00;97079.22;5025834;28;19937;-80
2024/01/10 05:03:44;;;;;;;;;;;;;;;-4.56;100.00;97069.06;5025996;28;19947;-80
2024/01/10 05:06:10;;;;;;;;;;;;;;;-4.56;100.00;97070.81;5025723;28;19939;-74
2024/01/10 05:08:36;;;;;;;;;;;;;;;-4.60;100.00;97072.78;5025763;28;19960;-73
2024/01/10 05:11:02;;;;;;;;;;;;;;;-4.60;100.00;97069.41;5026212;28;19939;-76
2024/01/10 05:13:28;;;;;;;;;;;;;;;-4.63;100.00;97061.94;5025527;28;19941;-76
2024/01/10 05:15:54;;;;;;;;;;;;;;;-4.73;100.00;97064.31;5009156;28;20089;-75
2024/01/10 05:18:20;;;;;;;;;;;;;;;-4.82;100.00;97058.13;5005702;28;19944;-79
2024/01/10 05:20:46;;;;;;;;;;;;;;;-4.83;100.00;97066.72;4990102;28;19964;-76
2024/01/10 05:23:12;;;;;;;;;;;;;;;-4.82;100.00;97067.53;5035522;28;19946;-77
2024/01/10 05:25:38;;;;;;;;;;;;;;;-4.84;100.00;97075.31;5045633;28;19945;-70
2024/01/10 05:28:04;;;;;;;;;;;;;;;-4.81;100.00;97084.50;5012247;28;19944;-80
2024/01/10 05:30:31;;;;;;;;;;;;;;;-4.82;100.00;97078.59;5028316;28;20028;-80
2024/01/10 05:32:58;;;;;;;;;;;;;;;-4.79;100.00;97087.78;5044758;28;19945;-81
2024/01/10 05:35:25;;;;;;;;;;;;;;;-4.79;100.00;97083.47;5044665;28;19933;-81
2024/01/10 05:37:51;;;;;;;;;;;;;;;-4.79;100.00;97088.59;5044621;28;19939;-80
2024/01/10 05:40:18;;;;;;;;;;;;;;;-4.78;100.00;97089.44;5045107;28;19949;-80
2024/01/10 05:42:44;;;;;;;;;;;;;;;-4.79;100.00;97092.91;5045076;28;20118;-79
2024/01/10 05:45:10;;;;;;;;;;;;;;;-4.79;100.00;97090.34;5044142;28;19963;-80
2024/01/10 05:47:36;;;;;;;;;;;;;;;-4.81;100.00;97095.56;5044425;28;20246;-74
2024/01/10 05:50:06;;;;;;;;;;;;;;;-4.82;100.00;97091.38;5027527;28;19969;-74
2024/01/10 05:52:32;;;;;;;;;;;;;;;-4.85;100.00;97091.59;5066189;28;19935;-74
2024/01/10 05:54:58;;;;;;;;;;;;;;;-4.88;100.00;97093.53;5048800;28;19935;-74
2024/01/10 05:57:24;;;;;;;;;;;;;;;-4.91;100.00;97100.50;5048158;28;20143;-74
2024/01/10 05:59:52;;;;;;;;;;;;;;;-4.93;100.00;97096.41;5066017;28;19936;-74
2024/01/10 06:02:18;;;;;;;;;;;;;;;-4.96;100.00;97092.31;5066585;28;19942;-74
2024/01/10 06:04:44;;;;;;;;;;;;;;;-4.98;100.00;97090.78;5066026;28;19944;-73
2024/01/10 06:07:10;;;;;;;;;;;;;;;-5.02;100.00;97089.38;5031767;28;19938;-75
2024/01/10 06:09:36;;;;;;;;;;;;;;;-5.06;100.00;97088.78;5031585;28;19965;-74
2024/01/10 06:12:01;;;;;;;;;;;;;;;-5.08;100.00;97085.50;5032305;28;20213;-73
2024/01/10 06:14:27;;;;;;;;;;;;;;;-5.13;100.00;97090.91;5031617;28;20279;-73
2024/01/10 06:16:53;;;;;;;;;;;;;;;-5.17;100.00;97092.03;5031444;28;19975;-73
2024/01/10 06:19:19;;;;;;;;;;;;;;;-5.20;100.00;97099.94;5047878;28;19946;-73
2024/01/10 06:21:45;;;;;;;;;;;;;;;-5.21;100.00;97087.25;5032196;28;19931;-74
2024/01/10 06:24:10;;;;;;;;;;;;;;;-5.22;100.00;97093.28;5047947;28;20131;-74
2024/01/10 06:26:36;;;;;;;;;;;;;;;-5.24;100.00;97077.22;5048663;28;19935;-73
2024/01/10 06:29:02;;;;;;;;;;;;;;;-5.28;100.00;97091.16;5031211;28;19955;-73
2024/01/10 06:31:28;;;;;;;;;;;;;;;-5.32;100.00;97086.22;5031386;28;19938;-73
2024/01/10 06:33:54;;;;;;;;;;;;;;;-5.35;100.00;97089.00;5031042;28;19945;-75
2024/01/10 06:36:20;;;;;;;;;;;;;;;-5.37;100.00;97085.72;5048355;28;19957;-73
2024/01/10 06:38:45;;;;;;;;;;;;;;;-5.41;100.00;97093.72;5047924;28;20000;-71
2024/01/10 06:41:13;;;;;;;;;;;;;;;-5.42;100.00;97109.94;5065876;28;19975;-75
2024/01/10 06:43:40;;;;;;;;;;;;;;;-5.44;100.00;97099.81;5065841;28;19943;-78
2024/01/10 06:46:06;;;;;;;;;;;;;;;-5.44;100.00;97109.22;5030897;28;19952;-77
2024/01/10 06:48:32;;;;;;;;;;;;;;;-5.45;100.00;97125.50;5047342;28;20219;-78
2024/01/10 06:50:58;;;;;;;;;;;;;;;-5.49;100.00;97113.84;5047536;28;19937;-78
2024/01/10 06:53:24;;;;;;;;;;;;;;;-5.53;100.00;97113.22;5047605;28;19961;-77
2024/01/10 06:55:50;;;;;;;;;;;;;;;-5.55;100.00;97115.06;5047557;28;20233;-74
2024/01/10 06:58:16;;;;;;;;;;;;;;;-5.56;100.00;97119.34;5047065;28;19941;-74
2024/01/10 07:00:42;;;;;;;;;;;;;;;-5.58;100.00;97117.81;5065179;28;19945;-71
2024/01/10 07:03:09;;;;;;;;;;;;;;;-5.62;100.00;97121.50;5030366;28;20343;-71
2024/01/10 07:05:35;;;;;;;;;;;;;;;-5.65;100.00;97121.69;5046793;28;20108;-73
2024/01/10 07:08:03;;;;;;;;;;;;;;;-5.67;100.00;97126.06;5046719;28;19959;-71
2024/01/10 07:10:29;;;;;;;;;;;;;;;-5.70;100.00;97129.66;5046753;28;20149;-71
2024/01/10 07:12:55;;;;;;;;;;;;;;;-5.72;100.00;97134.03;5030987;28;19934;-72
2024/01/10 07:15:21;;;;;;;;;;;;;;;-5.74;100.00;97136.69;5047240;28;19943;-74
2024/01/10 07:17:48;;;;;;;;;;;;;;;-5.73;100.00;97146.00;5065196;28;19942;-70
2024/01/10 07:20:14;;;;;;;;;;;;;;;-5.72;100.00;97144.25;5030010;28;19937;-70
2024/01/10 07:22:43;;;;;;;;;;;;;;;-5.72;100.00;97146.81;5046664;28;19937;-71
2024/01/10 07:25:10;;;;;;;;;;;;;;;-5.73;100.00;97153.66;5047437;28;19930;-71
2024/01/10 07:27:39;;;;;;;;;;;;;;;-5.74;100.00;97144.34;5046895;28;20134;-71
2024/01/10 07:30:10;;;;;;;;;;;;;;;-5.73;100.00;97150.31;5046412;28;19958;-71
2024/01/10 07:32:36;;;;;;;;;;;;;;;-5.75;100.00;97149.59;5047344;28;19948;-71
2024/01/10 07:35:02;;;;;;;;;;;;;;;-5.75;100.00;97152.94;5046479;28;20166;-77
2024/01/10 07:37:27;;;;;;;;;;;;;;;-5.74;100.00;97156.31;5030581;28;20123;-77
2024/01/10 07:39:54;;;;;;;;;;;;;;;-5.74;100.00;97157.13;5047134;28;19949;-76
2024/01/10 07:42:19;;;;;;;;;;;;;;;-5.72;100.00;97159.59;5046066;28;19943;-76
2024/01/10 07:44:45;;;;;;;;;;;;;;;-5.73;100.00;97161.34;5064740;28;19942;-76
2024/01/10 07:47:11;;;;;;;;;;;;;;;-5.68;100.00;97173.81;5063869;28;19990;-76
2024/01/10 07:49:37;;;;;;;;;;;;;;;-5.64;100.00;97170.13;5046028;28;19985;-76
2024/01/10 07:52:04;;;;;;;;;;;;;;;-5.61;100.00;97166.56;5063859;28;19970;-73
2024/01/10 07:54:31;;;;;;;;;;;;;;;-5.56;100.00;97165.34;5045944;28;19940;-74
2024/01/10 07:56:58;;;;;;;;;;;;;;;-5.50;100.00;97171.81;5063840;28;19950;-77
2024/01/10 07:59:24;;;;;;;;;;;;;;;-5.43;100.00;97170.47;5045946;28;19950;-78
2024/01/10 08:02:00;;;;;;;;;;;;;;;-5.33;100.00;97178.38;5046047;28;19938;-77
2024/01/10 08:04:26;;;;;;;;;;;;;;;-5.19;100.00;97173.16;5046797;28;20108;-75
2024/01/10 08:06:52;;;;;;;;;;;;;;;-5.03;100.00;97183.19;5045421;28;19937;-78
2024/01/10 08:09:21;;;;;;;;;;;;;;;-4.88;100.00;97181.34;5029337;28;19959;-77
2024/01/10 08:11:47;;;;;;;;;;;;;;;-4.71;100.00;97169.94;5063888;28;19940;-73
2024/01/10 08:14:14;;;;;;;;;;;;;;;-4.55;100.00;97167.16;5046637;28;19960;-75
2024/01/10 08:16:40;;;;;;;;;;;;;;;-4.39;100.00;97160.06;5063697;28;19969;-73
2024/01/10 08:19:06;;;;;;;;;;;;;;;-4.18;100.00;97169.72;5063802;28;19943;-73
2024/01/10 08:21:32;;;;;;;;;;;;;;;-4.01;100.00;97150.59;5046695;28;19941;-73
2024/01/10 08:23:57;;;;;;;;;;;;;;;-3.85;100.00;97145.19;5063679;28;19996;-73
2024/01/10 08:26:23;;;;;;;;;;;;;;;-3.73;100.00;97129.75;5063720;28;20009;-73
2024/01/10 08:28:49;;;;;;;;;;;;;;;-3.59;100.00;97130.47;5046467;28;19946;-73
2024/01/10 08:31:18;;;;;;;;;;;;;;;-3.52;100.00;97117.09;5045996;28;19944;-78
2024/01/10 08:33:45;;;;;;;;;;;;;;;-3.53;100.00;97123.16;5045792;28;19948;-73
2024/01/10 08:36:10;;;;;;;;;;;;;;;-3.53;100.00;97115.47;5046713;28;19940;-73
2024/01/10 08:38:37;;;;;;;;;;;;;;;-3.57;100.00;97134.56;5030186;28;19945;-73
2024/01/10 08:41:05;;;;;;;;;;;;;;;-3.52;100.00;97129.09;5030082;28;19941;-73
2024/01/10 08:43:31;;;;;;;;;;;;;;;-3.48;100.00;97140.78;5045049;28;19943;-73
2024/01/10 08:45:57;;;;;;;;;;;;;;;-3.57;100.00;97147.41;5030020;28;19990;-73
2024/01/10 08:48:23;;;;;;;;;;;;;;;-3.51;100.00;97243.53;5046078;28;19939;-79
2024/01/10 08:50:50;;;;;;;;;;;;;;;-2.72;100.00;97225.78;5045601;28;20245;-70
2024/01/10 08:53:16;;;;;;;;;;;;;;;-2.70;100.00;97101.50;5046319;28;19937;-70
2024/01/10 08:55:42;;;;;;;;;;;;;;;-2.83;100.00;97098.25;5029925;28;19965;-71
2024/01/10 08:58:08;;;;;;;;;;;;;;;-2.38;100.00;97244.59;5063951;28;19941;-68
2024/01/10 09:00:34;;;;;;;;;;;;;;;-1.52;100.00;97189.00;5063464;28;19980;-70
2024/01/10 09:03:00;;;;;;;;;;;;;;;-1.42;99.17;97087.94;5063367;28;19980;-69
2024/01/10 09:05:26;;;;;;;;;;;;;;;-1.56;98.49;97101.94;5045598;28;19940;-74
2024/01/10 09:07:55;;;;;;;;;;;;;;;-1.70;98.41;97105.63;5045588;28;19967;-70
2024/01/10 09:10:27;;;;;;;;;;;;;;;-1.81;95.88;97090.25;5046265;28;20146;-71
2024/01/10 09:12:53;;;;;;;;;;;;;;;-1.97;97.05;97113.84;5063901;28;19935;-71
2024/01/10 09:15:19;;;;;;;;;;;;;;;-2.19;96.81;97107.00;5063528;28;19934;-71
2024/01/10 09:17:45;;;;;;;;;;;;;;;-2.33;98.53;97128.63;5045953;28;19940;-71
2024/01/10 09:20:12;;;;;;;;;;;;;;;-2.40;97.59;97130.88;5066957;28;19943;-71
2024/01/10 09:22:38;;;;;;;;;;;;;;;-2.50;99.03;97141.06;5049768;28;19938;-71
2024/01/10 09:25:05;;;;;;;;;;;;;;;-2.63;99.27;97135.22;5067659;28;19931;-74
2024/01/10 09:27:31;;;;;;;;;;;;;;;-2.67;100.00;97147.50;5049762;28;19940;-78
2024/01/10 09:29:57;;;;;;;;;;;;;;;-2.67;99.72;97146.66;5033175;28;19954;-78
2024/01/10 09:32:23;;;;;;;;;;;;;;;-2.70;98.08;97134.88;5048782;28;19938;-78
2024/01/10 09:34:49;;;;;;;;;;;;;;;-2.75;97.22;97131.03;5033080;28;19943;-78
2024/01/10 09:37:15;;;;;;;;;;;;;;;-2.72;98.79;97141.06;5048633;28;20251;-79
2024/01/10 09:39:40;;;;;;;;;;;;;;;-2.58;96.70;97124.59;5048805;28;19933;-78
2024/01/10 09:42:06;;;;;;;;;;;;;;;-2.44;98.26;97144.88;5049439;28;19982;-78
2024/01/10 09:44:33;;;;;;;;;;;;;;;-2.21;98.26;97140.50;5066417;28;19959;-70
2024/01/10 09:47:00;;;;;;;;;;;;;;;-2.01;96.27;97126.09;5048036;28;20121;-80
2024/01/10 09:49:27;;;;;;;;;;;;;;;-1.87;94.15;97120.69;5048426;28;19960;-80
2024/01/10 09:52:00;;;;;;;;;;;;;;;-1.84;92.41;97107.56;5032754;28;20113;-81
2024/01/10 09:54:26;;;;;;;;;;;;;;;-1.83;92.99;97105.78;5049104;28;20107;-80
2024/01/10 09:56:53;;;;;;;;;;;;;;;-1.80;91.49;97105.56;5066146;28;20149;-80
2024/01/10 09:59:19;;;;;;;;;;;;;;;-1.81;91.89;97103.09;5048307;28;19980;-80
2024/01/10 10:01:45;;;;;;;;;;;;;;;-1.75;90.59;97102.63;5066167;28;19936;-74
2024/01/10 10:04:11;;;;;;;;;;;;;;;-1.69;92.24;97105.50;5032572;28;19937;-73
2024/01/10 10:06:37;;;;;;;;;;;;;;;-1.54;88.75;97075.13;5048903;28;20227;-73
2024/01/10 10:09:04;;;;;;;;;;;;;;;-1.52;92.50;97101.53;5031728;28;20009;-73
2024/01/10 10:11:30;;;;;;;;;;;;;;;-1.61;90.57;97086.06;5048378;28;19961;-73
2024/01/10 10:13:56;;;;;;;;;;;;;;;-1.54;90.07;97093.13;5065898;28;19932;-73
2024/01/10 10:16:23;;;;;;;;;;;;;;;-1.45;91.45;97101.84;5048186;28;19973;-73
2024/01/10 10:18:49;;;;;;;;;;;;;;;-1.38;89.07;97090.13;5031248;28;19955;-73
2024/01/10 10:21:16;;;;;;;;;;;;;;;-1.28;88.14;97080.72;5032240;28;20120;-71
2024/01/10 10:23:43;;;;;;;;;;;;;;;-1.17;89.44;97090.09;5032219;28;19937;-85
2024/01/10 10:26:21;;;;;;;;;;;;;;;-1.03;86.38;97079.47;5065647;28;19938;-84
2024/01/10 10:28:47;;;;;;;;;;;;;;;-0.95;88.97;97078.00;5066139;28;20115;-86
2024/01/10 10:31:15;;;;;;;;;;;;;;;-0.96;87.44;97059.16;5047324;28;19966;-85
2024/01/10 10:33:41;;;;;;;;;;;;;;;-0.82;88.62;97078.56;5066067;28;20219;-85
2024/01/10 10:36:08;;;;;;;;;;;;;;;-0.68;87.80;97062.75;5048609;28;19939;-86
2024/01/10 10:38:34;;;;;;;;;;;;;;;-0.43;88.21;97070.94;5047761;28;19947;-73
2024/01/10 10:41:00;;;;;;;;;;;;;;;-0.22;85.87;97048.44;5047882;28;19947;-73
2024/01/10 10:43:26;;;;;;;;;;;;;;;-0.14;85.09;97045.19;5031768;28;19938;-73
2024/01/10 10:45:52;;;;;;;;;;;;;;;0.01;86.36;97053.34;5047833;28;20115;-72
2024/01/10 10:48:22;;;;;;;;;;;;;;;0.04;86.20;97050.47;5046719;28;20007;-72
2024/01/10 10:50:58;;;;;;;;;;;;;;;0.16;86.55;97059.69;5030863;28;19960;-73
2024/01/10 10:53:25;;;;;;;;;;;;;;;0.27;84.71;97027.78;5048111;28;19940;-73
2024/01/10 10:55:52;;;;;;;;;;;;;;;0.33;83.84;97037.53;5065091;28;19939;-73
2024/01/10 10:58:18;;;;;;;;;;;;;;;0.24;83.07;97022.09;5048211;28;19942;-70
2024/01/10 11:00:46;;;;;;;;;;;;;;;0.15;84.49;97042.59;5064944;28;20010;-69
2024/01/10 11:03:12;;;;;;;;;;;;;;;0.11;82.56;97040.44;5047282;28;20111;-69
2024/01/10 11:05:41;;;;;;;;;;;;;;;-0.26;83.24;97046.28;5047683;28;19941;-68
2024/01/10 11:08:08;;;;;;;;;;;;;;;-0.51;86.70;97079.34;5064762;28;19956;-69
2024/01/10 11:10:36;;;;;;;;;;;;;;;-0.59;86.84;97076.59;5064762;28;20169;-69
2024/01/10 11:13:08;;;;;;;;;;;;;;;-0.57;87.09;97082.44;5064748;28;19943;-69
2024/01/10 11:15:44;;;;;;;;;;;;;;;-0.59;88.64;97096.41;5030232;28;19969;-72
2024/01/10 11:18:29;;;;;;;;;;;;;;;-0.68;86.06;97079.97;5047726;28;19948;-73
2024/01/10 11:21:06;;;;;;;;;;;;;;;-0.53;88.81;97098.44;5046792;28;20218;-74
2024/01/10 11:23:44;;;;;;;;;;;;;;;-0.33;84.88;97079.50;5065376;28;20110;-74
2024/01/10 11:26:10;;;;;;;;;;;;;;;-0.36;85.79;97084.91;5065080;28;20216;-73
2024/01/10 11:28:39;;;;;;;;;;;;;;;-0.44;85.87;97080.44;5064973;28;19941;-74
2024/01/10 11:31:06;;;;;;;;;;;;;;;-0.36;87.20;97089.25;5064394;28;19959;-74
2024/01/10 11:33:33;;;;;;;;;;;;;;;-0.39;85.96;97084.38;5064423;28;19937;-89
2024/01/10 11:36:09;;;;;;;;;;;;;;;-0.34;87.17;97102.81;5065227;28;19941;-89
2024/01/10 11:38:47;;;;;;;;;;;;;;;-0.37;84.27;97072.19;5047701;28;20097;-90
2024/01/10 11:41:27;;;;;;;;;;;;;;;-0.36;86.87;97087.50;5064939;28;19938;-88
2024/01/10 11:44:08;;;;;;;;;;;;;;;-0.32;88.40;97096.59;5065458;28;19992;-90
2024/01/10 11:46:34;;;;;;;;;;;;;;;-0.24;84.47;97065.81;5064805;28;19936;-89
2024/01/10 11:49:00;;;;;;;;;;;;;;;-0.12;87.60;97088.91;5064673;28;19935;-89
2024/01/10 11:51:26;;;;;;;;;;;;;;;0.09;87.34;97073.28;5064557;28;19973;-70
2024/01/10 11:53:53;;;;;;;;;;;;;;;0.06;89.54;97095.00;5047225;28;20135;-72
2024/01/10 11:56:19;;;;;;;;;;;;;;;0.02;85.80;97080.72;5047954;28;19942;-92
2024/01/10 11:59:16;;;;;;;;;;;;;;;0.06;87.34;97091.59;5048589;28;20209;-91
2024/01/10 12:01:42;;;;;;;;;;;;;;;0.05;87.61;97097.72;5028606;28;19942;-91
2024/01/10 12:04:11;;;;;;;;;;;;;;;0.07;88.61;97104.38;5047479;28;19962;-90
2024/01/10 12:06:37;;;;;;;;;;;;;;;0.19;88.66;97094.75;5030869;28;19936;-89
2024/01/10 12:09:08;;;;;;;;;;;;;;;0.24;88.67;97108.03;5064013;28;19951;-88
2024/01/10 12:11:35;;;;;;;;;;;;;;;0.32;89.92;97104.78;5064321;28;19951;-74
2024/01/10 12:14:01;;;;;;;;;;;;;;;0.38;89.61;97112.78;5046810;28;19938;-72
2024/01/10 12:16:27;;;;;;;;;;;;;;;0.33;88.42;97096.06;5045979;28;19994;-73
2024/01/10 12:18:53;;;;;;;;;;;;;;;0.29;90.38;97115.34;5046679;28;20241;-72
2024/01/10 12:21:19;;;;;;;;;;;;;;;0.22;90.92;97122.81;5063770;28;19935;-73
2024/01/10 12:23:45;;;;;;;;;;;;;;;0.26;91.65;97126.75;5063733;28;19946;-73
2024/01/10 12:26:13;;;;;;;;;;;;;;;0.36;91.47;97109.50;5046810;28;19940;-73
2024/01/10 12:28:40;;;;;;;;;;;;;;;0.25;91.53;97101.91;5063533;28;19937;-74
2024/01/10 12:31:09;;;;;;;;;;;;;;;0.18;90.84;97106.00;5045946;28;20145;-73
2024/01/10 12:33:39;;;;;;;;;;;;;;;0.09;90.72;97102.47;5064142;28;19949;-84
2024/01/10 12:36:07;;;;;;;;;;;;;;;0.10;91.40;97105.84;5046563;28;20095;-83
2024/01/10 12:38:33;;;;;;;;;;;;;;;0.07;91.28;97103.56;5045808;28;19943;-83